sensor_id;sensor_type;location;lat;lon;timestamp;temperature;humidity
1704;DHT22;849;48.780;9.216;2022-11-20T00:02:16;9.50;99.90
1704;DHT22;849;48.780;9.216;2022-11-20T00:04:41;9.50;99.90
1704;DHT22;849;48.780;9.216;2022-11-20T00:07:07;9.50;99.90
1704;DHT22;849;48.780;9.216;2022-11-20T00:09:33;9.50;99.90
1704;DHT22;849;48.780;9.216;2022-11-20T00:11:58;9.50;99.90
1704;DHT22;849;48.780;9.216;2022-11-20T00:14:24;9.40;99.90
1704;DHT22;849;48.780;9.216;2022-11-20T00:16:49;9.40;99.90
1704;DHT22;849;48.780;9.216;2022-11-20T00:19:15;9.50;99.90
1704;DHT22;849;48.780;9.216;2022-11-20T00:21:41;9.40;99.90
1704;DHT22;849;48.780;9.216;2022-11-20T00:24:08;9.40;99.90
1704;DHT22;849;48.780;9.216;2022-11-20T00:26:35;9.40;99.90
1704;DHT22;849;48.780;9.216;2022-11-20T00:29:01;9.20;99.90
1704;DHT22;849;48.780;9.216;2022-11-20T00:31:28;8.90;99.90
1704;DHT22;849;48.780;9.216;2022-11-20T00:33:54;9.00;99.90
1704;DHT22;849;48.780;9.216;2022-11-20T00:36:22;9.00;99.90
1704;DHT22;849;48.780;9.216;2022-11-20T00:38:52;9.10;99.90
1704;DHT22;849;48.780;9.216;2022-11-20T00:41:18;9.20;99.90
1704;DHT22;849;48.780;9.216;2022-11-20T00:43:43;8.90;99.90
1704;DHT22;849;48.780;9.216;2022-11-20T00:46:14;8.70;99.90
1704;DHT22;849;48.780;9.216;2022-11-20T00:48:40;9.00;99.90
1704;DHT22;849;48.780;9.216;2022-11-20T00:51:06;9.20;99.90
1704;DHT22;849;48.780;9.216;2022-11-20T00:53:32;9.10;99.90
1704;DHT22;849;48.780;9.216;2022-11-20T00:56:06;9.40;99.90
1704;DHT22;849;48.780;9.216;2022-11-20T00:58:34;9.20;99.90
1704;DHT22;849;48.780;9.216;2022-11-20T01:01:05;9.50;99.90
1704;DHT22;849;48.780;9.216;2022-11-20T01:03:32;9.40;99.90
1704;DHT22;849;48.780;9.216;2022-11-20T01:06:02;9.30;99.90
1704;DHT22;849;48.780;9.216;2022-11-20T01:08:32;9.30;99.90
1704;DHT22;849;48.780;9.216;2022-11-20T01:11:00;9.40;99.90
1704;DHT22;849;48.780;9.216;2022-11-20T01:13:27;9.30;99.90
1704;DHT22;849;48.780;9.216;2022-11-20T01:16:09;9.20;99.90
1704;DHT22;849;48.780;9.216;2022-11-20T01:18:36;9.10;99.90
1704;DHT22;849;48.780;9.216;2022-11-20T01:21:03;9.40;99.90
1704;DHT22;849;48.780;9.216;2022-11-20T01:23:37;9.10;99.90
1704;DHT22;849;48.780;9.216;2022-11-20T01:26:04;9.10;99.90
1704;DHT22;849;48.780;9.216;2022-11-20T01:28:30;8.80;99.90
1704;DHT22;849;48.780;9.216;2022-11-20T01:30:56;8.80;99.90
1704;DHT22;849;48.780;9.216;2022-11-20T01:33:22;8.90;99.90
1704;DHT22;849;48.780;9.216;2022-11-20T01:35:48;8.90;99.90
1704;DHT22;849;48.780;9.216;2022-11-20T01:38:15;8.80;99.90
1704;DHT22;849;48.780;9.216;2022-11-20T01:40:40;8.90;99.90
1704;DHT22;849;48.780;9.216;2022-11-20T01:43:14;9.20;99.90
1704;DHT22;849;48.780;9.216;2022-11-20T01:48:30;9.20;99.90
1704;DHT22;849;48.780;9.216;2022-11-20T01:51:00;9.30;99.90
1704;DHT22;849;48.780;9.216;2022-11-20T01:53:31;9.30;99.90
1704;DHT22;849;48.780;9.216;2022-11-20T01:56:00;9.30;99.90
1704;DHT22;849;48.780;9.216;2022-11-20T01:58:30;9.50;99.90
1704;DHT22;849;48.780;9.216;2022-11-20T02:00:58;9.40;99.90
1704;DHT22;849;48.780;9.216;2022-11-20T02:03:24;9.60;99.90
1704;DHT22;849;48.780;9.216;2022-11-20T02:08:30;9.50;99.90
1704;DHT22;849;48.780;9.216;2022-11-20T02:10:56;9.50;99.90
1704;DHT22;849;48.780;9.216;2022-11-20T02:13:22;9.30;99.90
1704;DHT22;849;48.780;9.216;2022-11-20T02:18:55;9.30;99.90
1704;DHT22;849;48.780;9.216;2022-11-20T02:24:02;9.10;99.90
1704;DHT22;849;48.780;9.216;2022-11-20T02:26:30;9.10;99.90
1704;DHT22;849;48.780;9.216;2022-11-20T02:28:57;9.10;99.90
1704;DHT22;849;48.780;9.216;2022-11-20T02:31:23;9.00;99.90
1704;DHT22;849;48.780;9.216;2022-11-20T02:33:55;9.20;99.90
1704;DHT22;849;48.780;9.216;2022-11-20T02:36:21;9.30;99.90
1704;DHT22;849;48.780;9.216;2022-11-20T02:38:47;9.20;99.90
1704;DHT22;849;48.780;9.216;2022-11-20T02:41:14;9.20;99.90
1704;DHT22;849;48.780;9.216;2022-11-20T02:43:39;9.00;99.90
1704;DHT22;849;48.780;9.216;2022-11-20T02:46:07;9.00;99.90
1704;DHT22;849;48.780;9.216;2022-11-20T02:48:32;9.20;99.90
1704;DHT22;849;48.780;9.216;2022-11-20T02:50:58;9.10;99.90
1704;DHT22;849;48.780;9.216;2022-11-20T02:53:24;9.30;99.90
1704;DHT22;849;48.780;9.216;2022-11-20T02:55:50;9.10;99.90
1704;DHT22;849;48.780;9.216;2022-11-20T02:58:15;8.80;99.90
1704;DHT22;849;48.780;9.216;2022-11-20T03:00:41;8.90;99.90
1704;DHT22;849;48.780;9.216;2022-11-20T03:03:07;9.10;99.90
1704;DHT22;849;48.780;9.216;2022-11-20T03:05:32;9.10;99.90
1704;DHT22;849;48.780;9.216;2022-11-20T03:07:58;9.10;99.90
1704;DHT22;849;48.780;9.216;2022-11-20T03:10:23;9.00;99.90
1704;DHT22;849;48.780;9.216;2022-11-20T03:12:53;8.80;99.90
1704;DHT22;849;48.780;9.216;2022-11-20T03:15:19;8.50;99.90
1704;DHT22;849;48.780;9.216;2022-11-20T03:17:45;8.50;99.90
1704;DHT22;849;48.780;9.216;2022-11-20T03:20:11;8.50;99.90
1704;DHT22;849;48.780;9.216;2022-11-20T03:22:37;8.70;99.90
1704;DHT22;849;48.780;9.216;2022-11-20T03:25:03;8.80;99.90
1704;DHT22;849;48.780;9.216;2022-11-20T03:27:32;9.00;99.90
1704;DHT22;849;48.780;9.216;2022-11-20T03:29:58;8.70;99.90
1704;DHT22;849;48.780;9.216;2022-11-20T03:32:24;8.80;99.90
1704;DHT22;849;48.780;9.216;2022-11-20T03:34:49;9.10;99.90
1704;DHT22;849;48.780;9.216;2022-11-20T03:37:15;9.30;99.90
1704;DHT22;849;48.780;9.216;2022-11-20T03:39:41;9.40;99.90
1704;DHT22;849;48.780;9.216;2022-11-20T03:42:06;9.30;99.90
1704;DHT22;849;48.780;9.216;2022-11-20T03:44:52;9.40;99.90
1704;DHT22;849;48.780;9.216;2022-11-20T03:47:17;9.30;99.90
1704;DHT22;849;48.780;9.216;2022-11-20T03:49:43;9.30;99.90
1704;DHT22;849;48.780;9.216;2022-11-20T03:52:09;9.20;99.90
1704;DHT22;849;48.780;9.216;2022-11-20T03:54:34;9.20;99.90
1704;DHT22;849;48.780;9.216;2022-11-20T03:57:00;9.00;99.90
1704;DHT22;849;48.780;9.216;2022-11-20T03:59:27;9.00;99.90
1704;DHT22;849;48.780;9.216;2022-11-20T04:01:53;9.00;99.90
1704;DHT22;849;48.780;9.216;2022-11-20T04:04:18;9.00;99.90
1704;DHT22;849;48.780;9.216;2022-11-20T04:06:44;9.00;99.90
1704;DHT22;849;48.780;9.216;2022-11-20T04:09:10;9.00;99.90
1704;DHT22;849;48.780;9.216;2022-11-20T04:11:37;8.60;99.90
1704;DHT22;849;48.780;9.216;2022-11-20T04:14:05;8.40;99.90
1704;DHT22;849;48.780;9.216;2022-11-20T04:16:34;8.60;99.90
1704;DHT22;849;48.780;9.216;2022-11-20T04:19:02;8.60;99.90
1704;DHT22;849;48.780;9.216;2022-11-20T04:21:28;8.70;99.90
1704;DHT22;849;48.780;9.216;2022-11-20T04:23:55;8.90;99.90
1704;DHT22;849;48.780;9.216;2022-11-20T04:26:22;8.70;99.90
1704;DHT22;849;48.780;9.216;2022-11-20T04:28:49;8.80;99.90
1704;DHT22;849;48.780;9.216;2022-11-20T04:31:17;8.70;99.90
1704;DHT22;849;48.780;9.216;2022-11-20T04:33:43;8.50;99.90
1704;DHT22;849;48.780;9.216;2022-11-20T04:36:14;8.50;99.90
1704;DHT22;849;48.780;9.216;2022-11-20T04:38:40;8.50;99.90
1704;DHT22;849;48.780;9.216;2022-11-20T04:41:09;8.40;99.90
1704;DHT22;849;48.780;9.216;2022-11-20T04:43:36;8.20;99.90
1704;DHT22;849;48.780;9.216;2022-11-20T04:46:02;8.20;99.90
1704;DHT22;849;48.780;9.216;2022-11-20T04:48:28;7.90;99.90
1704;DHT22;849;48.780;9.216;2022-11-20T04:50:54;7.80;99.90
1704;DHT22;849;48.780;9.216;2022-11-20T04:53:21;8.10;99.90
1704;DHT22;849;48.780;9.216;2022-11-20T04:55:47;8.40;99.90
1704;DHT22;849;48.780;9.216;2022-11-20T04:58:13;8.50;99.90
1704;DHT22;849;48.780;9.216;2022-11-20T05:00:39;8.80;99.90
1704;DHT22;849;48.780;9.216;2022-11-20T05:03:05;8.90;99.90
1704;DHT22;849;48.780;9.216;2022-11-20T05:05:33;9.00;99.90
1704;DHT22;849;48.780;9.216;2022-11-20T05:07:59;9.00;99.90
1704;DHT22;849;48.780;9.216;2022-11-20T05:10:26;9.20;99.90
1704;DHT22;849;48.780;9.216;2022-11-20T05:12:52;8.80;99.90
1704;DHT22;849;48.780;9.216;2022-11-20T05:15:17;8.80;99.90
1704;DHT22;849;48.780;9.216;2022-11-20T05:17:50;9.00;99.90
1704;DHT22;849;48.780;9.216;2022-11-20T05:20:17;8.90;99.90
1704;DHT22;849;48.780;9.216;2022-11-20T05:22:43;9.00;99.90
1704;DHT22;849;48.780;9.216;2022-11-20T05:25:10;9.20;99.90
1704;DHT22;849;48.780;9.216;2022-11-20T05:27:36;8.90;99.90
1704;DHT22;849;48.780;9.216;2022-11-20T05:30:05;9.10;99.90
1704;DHT22;849;48.780;9.216;2022-11-20T05:32:31;8.90;99.90
1704;DHT22;849;48.780;9.216;2022-11-20T05:34:57;9.10;99.90
1704;DHT22;849;48.780;9.216;2022-11-20T05:37:23;8.90;99.90
1704;DHT22;849;48.780;9.216;2022-11-20T05:39:49;8.70;99.90
1704;DHT22;849;48.780;9.216;2022-11-20T05:42:14;8.70;99.90
1704;DHT22;849;48.780;9.216;2022-11-20T05:44:56;8.80;99.90
1704;DHT22;849;48.780;9.216;2022-11-20T05:47:22;8.80;99.90
1704;DHT22;849;48.780;9.216;2022-11-20T05:49:48;8.60;99.90
1704;DHT22;849;48.780;9.216;2022-11-20T05:52:14;8.70;99.90
1704;DHT22;849;48.780;9.216;2022-11-20T05:54:39;8.60;99.90
1704;DHT22;849;48.780;9.216;2022-11-20T05:57:05;8.70;99.90
1704;DHT22;849;48.780;9.216;2022-11-20T05:59:31;8.60;99.90
1704;DHT22;849;48.780;9.216;2022-11-20T06:01:56;8.70;99.90
1704;DHT22;849;48.780;9.216;2022-11-20T06:04:22;8.80;99.90
1704;DHT22;849;48.780;9.216;2022-11-20T06:06:47;9.00;99.90
1704;DHT22;849;48.780;9.216;2022-11-20T06:09:13;9.20;99.90
1704;DHT22;849;48.780;9.216;2022-11-20T06:11:39;9.40;99.90
1704;DHT22;849;48.780;9.216;2022-11-20T06:14:04;9.40;99.90
1704;DHT22;849;48.780;9.216;2022-11-20T06:16:30;9.20;99.90
1704;DHT22;849;48.780;9.216;2022-11-20T06:18:56;8.90;99.90
1704;DHT22;849;48.780;9.216;2022-11-20T06:21:22;8.70;99.90
1704;DHT22;849;48.780;9.216;2022-11-20T06:23:49;8.40;99.90
1704;DHT22;849;48.780;9.216;2022-11-20T06:26:18;8.70;99.90
1704;DHT22;849;48.780;9.216;2022-11-20T06:28:44;8.90;99.90
1704;DHT22;849;48.780;9.216;2022-11-20T06:31:12;8.90;99.90
1704;DHT22;849;48.780;9.216;2022-11-20T06:33:39;9.20;99.90
1704;DHT22;849;48.780;9.216;2022-11-20T06:36:05;9.50;99.90
1704;DHT22;849;48.780;9.216;2022-11-20T06:38:30;9.60;99.90
1704;DHT22;849;48.780;9.216;2022-11-20T06:40:56;9.40;99.90
1704;DHT22;849;48.780;9.216;2022-11-20T06:43:24;9.20;99.90
1704;DHT22;849;48.780;9.216;2022-11-20T06:45:57;9.20;99.90
1704;DHT22;849;48.780;9.216;2022-11-20T06:48:24;9.20;99.90
1704;DHT22;849;48.780;9.216;2022-11-20T06:50:50;9.10;99.90
1704;DHT22;849;48.780;9.216;2022-11-20T06:53:16;9.00;99.90
1704;DHT22;849;48.780;9.216;2022-11-20T06:55:46;9.10;99.90
1704;DHT22;849;48.780;9.216;2022-11-20T06:58:12;9.00;99.90
1704;DHT22;849;48.780;9.216;2022-11-20T07:00:39;8.80;99.90
1704;DHT22;849;48.780;9.216;2022-11-20T07:03:06;8.70;99.90
1704;DHT22;849;48.780;9.216;2022-11-20T07:05:32;8.70;99.90
1704;DHT22;849;48.780;9.216;2022-11-20T07:07:58;8.60;99.90
1704;DHT22;849;48.780;9.216;2022-11-20T07:10:25;8.50;99.90
1704;DHT22;849;48.780;9.216;2022-11-20T07:12:51;8.80;99.90
1704;DHT22;849;48.780;9.216;2022-11-20T07:15:18;8.80;99.90
1704;DHT22;849;48.780;9.216;2022-11-20T07:17:44;8.90;99.90
1704;DHT22;849;48.780;9.216;2022-11-20T07:20:09;9.20;99.90
1704;DHT22;849;48.780;9.216;2022-11-20T07:22:35;9.40;99.90
1704;DHT22;849;48.780;9.216;2022-11-20T07:25:01;9.50;99.90
1704;DHT22;849;48.780;9.216;2022-11-20T07:27:27;9.60;99.90
1704;DHT22;849;48.780;9.216;2022-11-20T07:29:53;9.60;99.90
1704;DHT22;849;48.780;9.216;2022-11-20T07:32:19;9.60;99.90
1704;DHT22;849;48.780;9.216;2022-11-20T07:34:45;9.50;99.90
1704;DHT22;849;48.780;9.216;2022-11-20T07:37:10;9.50;99.90
1704;DHT22;849;48.780;9.216;2022-11-20T07:39:36;9.50;99.90
1704;DHT22;849;48.780;9.216;2022-11-20T07:42:02;9.60;99.90
1704;DHT22;849;48.780;9.216;2022-11-20T07:44:27;9.50;99.90
1704;DHT22;849;48.780;9.216;2022-11-20T07:46:53;9.50;99.90
1704;DHT22;849;48.780;9.216;2022-11-20T07:49:19;9.70;99.90
1704;DHT22;849;48.780;9.216;2022-11-20T07:51:44;9.90;99.90
1704;DHT22;849;48.780;9.216;2022-11-20T07:54:10;10.00;99.90
1704;DHT22;849;48.780;9.216;2022-11-20T07:56:35;9.80;99.90
1704;DHT22;849;48.780;9.216;2022-11-20T07:59:01;9.70;99.90
1704;DHT22;849;48.780;9.216;2022-11-20T08:01:29;9.70;99.90
1704;DHT22;849;48.780;9.216;2022-11-20T08:03:54;9.80;99.90
1704;DHT22;849;48.780;9.216;2022-11-20T08:06:20;9.70;99.90
1704;DHT22;849;48.780;9.216;2022-11-20T08:08:46;9.50;99.90
1704;DHT22;849;48.780;9.216;2022-11-20T08:11:11;9.70;99.90
1704;DHT22;849;48.780;9.216;2022-11-20T08:13:55;9.90;99.90
1704;DHT22;849;48.780;9.216;2022-11-20T08:16:47;10.10;99.90
1704;DHT22;849;48.780;9.216;2022-11-20T08:19:17;10.10;99.90
1704;DHT22;849;48.780;9.216;2022-11-20T08:21:44;9.40;99.90
1704;DHT22;849;48.780;9.216;2022-11-20T08:24:10;9.00;99.90
1704;DHT22;849;48.780;9.216;2022-11-20T08:26:37;9.30;99.90
1704;DHT22;849;48.780;9.216;2022-11-20T08:29:03;9.60;99.90
1704;DHT22;849;48.780;9.216;2022-11-20T08:31:30;9.80;99.90
1704;DHT22;849;48.780;9.216;2022-11-20T08:33:56;10.10;99.90
1704;DHT22;849;48.780;9.216;2022-11-20T08:36:22;10.00;99.90
1704;DHT22;849;48.780;9.216;2022-11-20T08:38:53;10.10;99.90
1704;DHT22;849;48.780;9.216;2022-11-20T08:41:19;10.30;99.90
1704;DHT22;849;48.780;9.216;2022-11-20T08:43:57;10.00;99.90
1704;DHT22;849;48.780;9.216;2022-11-20T08:46:25;10.10;99.90
1704;DHT22;849;48.780;9.216;2022-11-20T08:48:51;9.80;99.90
1704;DHT22;849;48.780;9.216;2022-11-20T08:51:17;9.80;99.90
1704;DHT22;849;48.780;9.216;2022-11-20T08:53:43;9.80;99.90
1704;DHT22;849;48.780;9.216;2022-11-20T08:56:09;9.90;99.90
1704;DHT22;849;48.780;9.216;2022-11-20T08:58:35;10.10;99.90
1704;DHT22;849;48.780;9.216;2022-11-20T09:01:01;10.40;99.90
1704;DHT22;849;48.780;9.216;2022-11-20T09:03:28;10.60;99.90
1704;DHT22;849;48.780;9.216;2022-11-20T09:06:01;10.20;99.90
1704;DHT22;849;48.780;9.216;2022-11-20T09:08:28;10.20;99.90
1704;DHT22;849;48.780;9.216;2022-11-20T09:10:55;10.20;99.90
1704;DHT22;849;48.780;9.216;2022-11-20T09:13:21;10.00;99.90
1704;DHT22;849;48.780;9.216;2022-11-20T09:15:52;9.70;99.90
1704;DHT22;849;48.780;9.216;2022-11-20T09:18:18;9.60;99.90
1704;DHT22;849;48.780;9.216;2022-11-20T09:20:44;9.60;99.90
1704;DHT22;849;48.780;9.216;2022-11-20T09:23:09;9.60;99.90
1704;DHT22;849;48.780;9.216;2022-11-20T09:25:35;9.50;99.90
1704;DHT22;849;48.780;9.216;2022-11-20T09:28:00;9.70;99.90
1704;DHT22;849;48.780;9.216;2022-11-20T09:30:27;9.40;99.90
1704;DHT22;849;48.780;9.216;2022-11-20T09:32:53;9.80;99.90
1704;DHT22;849;48.780;9.216;2022-11-20T09:35:19;10.20;99.90
1704;DHT22;849;48.780;9.216;2022-11-20T09:37:45;10.30;99.90
1704;DHT22;849;48.780;9.216;2022-11-20T09:40:27;10.00;99.90
1704;DHT22;849;48.780;9.216;2022-11-20T09:46:21;9.90;99.90
1704;DHT22;849;48.780;9.216;2022-11-20T09:48:37;9.60;99.90
1704;DHT22;849;48.780;9.216;2022-11-20T09:51:16;9.50;99.90
1704;DHT22;849;48.780;9.216;2022-11-20T09:54:18;10.00;99.90
1704;DHT22;849;48.780;9.216;2022-11-20T09:56:48;10.50;99.90
1704;DHT22;849;48.780;9.216;2022-11-20T09:59:36;10.60;99.90
1704;DHT22;849;48.780;9.216;2022-11-20T10:02:17;10.60;99.90
1704;DHT22;849;48.780;9.216;2022-11-20T10:07:52;10.10;99.90
1704;DHT22;849;48.780;9.216;2022-11-20T10:10:54;10.10;99.90
1704;DHT22;849;48.780;9.216;2022-11-20T10:19:45;10.30;99.90
1704;DHT22;849;48.780;9.216;2022-11-20T10:25:41;9.90;99.90
1704;DHT22;849;48.780;9.216;2022-11-20T10:30:42;10.10;99.90
1704;DHT22;849;48.780;9.216;2022-11-20T10:33:31;9.60;99.90
1704;DHT22;849;48.780;9.216;2022-11-20T10:36:08;9.50;99.90
1704;DHT22;849;48.780;9.216;2022-11-20T10:38:52;9.70;99.90
1704;DHT22;849;48.780;9.216;2022-11-20T10:41:33;10.10;99.90
1704;DHT22;849;48.780;9.216;2022-11-20T10:44:09;10.30;99.90
1704;DHT22;849;48.780;9.216;2022-11-20T10:46:43;10.40;99.90
1704;DHT22;849;48.780;9.216;2022-11-20T10:49:17;10.60;99.90
1704;DHT22;849;48.780;9.216;2022-11-20T11:00:22;10.10;99.90
1704;DHT22;849;48.780;9.216;2022-11-20T11:02:53;10.30;99.90
1704;DHT22;849;48.780;9.216;2022-11-20T11:08:03;10.60;99.90
1704;DHT22;849;48.780;9.216;2022-11-20T11:13:28;10.80;99.90
1704;DHT22;849;48.780;9.216;2022-11-20T11:15:54;10.70;99.90
1704;DHT22;849;48.780;9.216;2022-11-20T11:18:38;10.90;99.90
1704;DHT22;849;48.780;9.216;2022-11-20T11:21:05;10.80;99.90
1704;DHT22;849;48.780;9.216;2022-11-20T11:23:39;10.80;99.90
1704;DHT22;849;48.780;9.216;2022-11-20T11:26:18;10.70;99.90
1704;DHT22;849;48.780;9.216;2022-11-20T11:29:03;10.90;99.90
1704;DHT22;849;48.780;9.216;2022-11-20T11:31:32;11.00;99.90
1704;DHT22;849;48.780;9.216;2022-11-20T11:34:12;11.00;99.90
1704;DHT22;849;48.780;9.216;2022-11-20T11:36:38;10.80;99.90
1704;DHT22;849;48.780;9.216;2022-11-20T11:39:08;10.80;99.90
1704;DHT22;849;48.780;9.216;2022-11-20T11:41:36;10.20;99.90
1704;DHT22;849;48.780;9.216;2022-11-20T11:47:05;9.80;99.90
1704;DHT22;849;48.780;9.216;2022-11-20T11:49:34;10.00;99.90
1704;DHT22;849;48.780;9.216;2022-11-20T11:54:53;10.30;99.90
1704;DHT22;849;48.780;9.216;2022-11-20T12:00:16;10.10;99.90
1704;DHT22;849;48.780;9.216;2022-11-20T12:07:59;10.00;99.90
1704;DHT22;849;48.780;9.216;2022-11-20T12:12:59;9.80;99.90
1704;DHT22;849;48.780;9.216;2022-11-20T12:15:30;9.60;99.90
1704;DHT22;849;48.780;9.216;2022-11-20T12:17:56;9.90;99.90
1704;DHT22;849;48.780;9.216;2022-11-20T12:20:24;10.30;99.90
1704;DHT22;849;48.780;9.216;2022-11-20T12:22:56;10.20;99.90
1704;DHT22;849;48.780;9.216;2022-11-20T12:25:29;10.50;99.90
1704;DHT22;849;48.780;9.216;2022-11-20T12:30:38;10.30;99.90
1704;DHT22;849;48.780;9.216;2022-11-20T12:44:03;11.20;99.90
1704;DHT22;849;48.780;9.216;2022-11-20T12:47:07;11.00;99.90
1704;DHT22;849;48.780;9.216;2022-11-20T12:49:38;11.00;99.90
1704;DHT22;849;48.780;9.216;2022-11-20T12:52:47;10.50;99.90
1704;DHT22;849;48.780;9.216;2022-11-20T12:55:36;10.60;99.90
1704;DHT22;849;48.780;9.216;2022-11-20T12:58:29;10.30;99.90
1704;DHT22;849;48.780;9.216;2022-11-20T13:06:45;10.40;99.90
1704;DHT22;849;48.780;9.216;2022-11-20T13:09:13;10.30;99.90
1704;DHT22;849;48.780;9.216;2022-11-20T13:11:54;10.40;99.90
1704;DHT22;849;48.780;9.216;2022-11-20T13:19:32;11.20;99.90
1704;DHT22;849;48.780;9.216;2022-11-20T13:21:58;11.00;99.90
1704;DHT22;849;48.780;9.216;2022-11-20T13:24:30;11.00;99.90
1704;DHT22;849;48.780;9.216;2022-11-20T13:29:42;11.00;99.90
1704;DHT22;849;48.780;9.216;2022-11-20T13:32:17;10.40;99.90
1704;DHT22;849;48.780;9.216;2022-11-20T13:34:53;10.20;99.90
1704;DHT22;849;48.780;9.216;2022-11-20T13:37:34;10.10;99.90
1704;DHT22;849;48.780;9.216;2022-11-20T13:43:27;11.00;99.90
1704;DHT22;849;48.780;9.216;2022-11-20T13:45:25;10.90;99.90
1704;DHT22;849;48.780;9.216;2022-11-20T13:47:52;10.50;99.90
1704;DHT22;849;48.780;9.216;2022-11-20T13:50:19;10.30;99.90
1704;DHT22;849;48.780;9.216;2022-11-20T13:55:54;10.60;99.90
1704;DHT22;849;48.780;9.216;2022-11-20T13:58:47;10.70;99.90
1704;DHT22;849;48.780;9.216;2022-11-20T14:01:20;10.90;99.90
1704;DHT22;849;48.780;9.216;2022-11-20T14:03:47;10.80;99.90
1704;DHT22;849;48.780;9.216;2022-11-20T14:06:34;10.80;99.90
1704;DHT22;849;48.780;9.216;2022-11-20T14:09:04;10.20;99.90
1704;DHT22;849;48.780;9.216;2022-11-20T14:11:30;10.40;99.90
1704;DHT22;849;48.780;9.216;2022-11-20T14:14:04;10.30;99.90
1704;DHT22;849;48.780;9.216;2022-11-20T14:16:38;10.30;99.90
1704;DHT22;849;48.780;9.216;2022-11-20T14:21:46;10.00;99.90
1704;DHT22;849;48.780;9.216;2022-11-20T14:24:13;10.20;99.90
1704;DHT22;849;48.780;9.216;2022-11-20T14:26:43;10.60;99.90
1704;DHT22;849;48.780;9.216;2022-11-20T14:29:18;10.60;99.90
1704;DHT22;849;48.780;9.216;2022-11-20T14:31:48;10.70;99.90
1704;DHT22;849;48.780;9.216;2022-11-20T14:34:22;10.40;99.90
1704;DHT22;849;48.780;9.216;2022-11-20T14:36:48;10.40;99.90
1704;DHT22;849;48.780;9.216;2022-11-20T14:39:21;10.80;99.90
1704;DHT22;849;48.780;9.216;2022-11-20T14:41:51;11.00;99.90
1704;DHT22;849;48.780;9.216;2022-11-20T14:44:26;11.10;99.90
1704;DHT22;849;48.780;9.216;2022-11-20T14:46:52;11.20;99.90
1704;DHT22;849;48.780;9.216;2022-11-20T14:49:19;11.10;99.90
1704;DHT22;849;48.780;9.216;2022-11-20T14:51:45;10.90;99.90
1704;DHT22;849;48.780;9.216;2022-11-20T14:54:21;10.60;99.90
1704;DHT22;849;48.780;9.216;2022-11-20T14:56:59;10.60;99.90
1704;DHT22;849;48.780;9.216;2022-11-20T14:59:30;10.80;99.90
1704;DHT22;849;48.780;9.216;2022-11-20T15:01:59;10.90;99.90
1704;DHT22;849;48.780;9.216;2022-11-20T15:04:24;10.90;99.90
1704;DHT22;849;48.780;9.216;2022-11-20T15:06:56;10.90;99.90
1704;DHT22;849;48.780;9.216;2022-11-20T15:09:22;11.00;99.90
1704;DHT22;849;48.780;9.216;2022-11-20T15:11:59;11.00;99.90
1704;DHT22;849;48.780;9.216;2022-11-20T15:14:26;11.10;99.90
1704;DHT22;849;48.780;9.216;2022-11-20T15:16:53;11.00;99.90
1704;DHT22;849;48.780;9.216;2022-11-20T15:19:21;10.90;99.90
1704;DHT22;849;48.780;9.216;2022-11-20T15:21:47;10.90;99.90
1704;DHT22;849;48.780;9.216;2022-11-20T15:24:13;11.00;99.90
1704;DHT22;849;48.780;9.216;2022-11-20T15:26:39;10.60;99.90
1704;DHT22;849;48.780;9.216;2022-11-20T15:29:09;10.30;99.90
1704;DHT22;849;48.780;9.216;2022-11-20T15:31:36;10.50;99.90
1704;DHT22;849;48.780;9.216;2022-11-20T15:34:04;10.60;99.90
1704;DHT22;849;48.780;9.216;2022-11-20T15:36:31;10.60;99.90
1704;DHT22;849;48.780;9.216;2022-11-20T15:38:57;10.50;99.90
1704;DHT22;849;48.780;9.216;2022-11-20T15:41:22;10.50;99.90
1704;DHT22;849;48.780;9.216;2022-11-20T15:43:48;10.30;99.90
1704;DHT22;849;48.780;9.216;2022-11-20T15:46:25;10.30;99.90
1704;DHT22;849;48.780;9.216;2022-11-20T15:48:54;10.30;99.90
1704;DHT22;849;48.780;9.216;2022-11-20T15:51:30;10.40;99.90
1704;DHT22;849;48.780;9.216;2022-11-20T15:53:56;9.90;99.90
1704;DHT22;849;48.780;9.216;2022-11-20T15:56:23;9.80;99.90
1704;DHT22;849;48.780;9.216;2022-11-20T15:58:48;9.90;99.90
1704;DHT22;849;48.780;9.216;2022-11-20T16:01:19;10.00;99.90
1704;DHT22;849;48.780;9.216;2022-11-20T16:03:46;10.20;99.90
1704;DHT22;849;48.780;9.216;2022-11-20T16:06:11;10.30;99.90
1704;DHT22;849;48.780;9.216;2022-11-20T16:08:37;10.00;99.90
1704;DHT22;849;48.780;9.216;2022-11-20T16:11:04;10.00;99.90
1704;DHT22;849;48.780;9.216;2022-11-20T16:13:31;9.80;99.90
1704;DHT22;849;48.780;9.216;2022-11-20T16:16:23;9.80;99.90
1704;DHT22;849;48.780;9.216;2022-11-20T16:18:51;9.80;99.90
1704;DHT22;849;48.780;9.216;2022-11-20T16:21:16;9.70;99.90
1704;DHT22;849;48.780;9.216;2022-11-20T16:23:42;9.70;99.90
1704;DHT22;849;48.780;9.216;2022-11-20T16:26:15;9.60;99.90
1704;DHT22;849;48.780;9.216;2022-11-20T16:28:42;9.60;99.90
1704;DHT22;849;48.780;9.216;2022-11-20T16:31:13;9.50;99.90
1704;DHT22;849;48.780;9.216;2022-11-20T16:33:39;9.50;99.90
1704;DHT22;849;48.780;9.216;2022-11-20T16:36:10;9.50;99.90
1704;DHT22;849;48.780;9.216;2022-11-20T16:38:35;9.50;99.90
1704;DHT22;849;48.780;9.216;2022-11-20T16:41:02;9.60;99.90
1704;DHT22;849;48.780;9.216;2022-11-20T16:43:28;9.60;99.90
1704;DHT22;849;48.780;9.216;2022-11-20T16:45:53;9.60;99.90
1704;DHT22;849;48.780;9.216;2022-11-20T16:48:19;9.80;99.90
1704;DHT22;849;48.780;9.216;2022-11-20T16:50:50;9.70;99.90
1704;DHT22;849;48.780;9.216;2022-11-20T16:53:20;9.80;99.90
1704;DHT22;849;48.780;9.216;2022-11-20T16:55:46;9.70;99.90
1704;DHT22;849;48.780;9.216;2022-11-20T16:58:13;9.70;99.90
1704;DHT22;849;48.780;9.216;2022-11-20T17:00:40;9.90;99.90
1704;DHT22;849;48.780;9.216;2022-11-20T17:03:06;9.90;99.90
1704;DHT22;849;48.780;9.216;2022-11-20T17:05:32;10.00;99.90
1704;DHT22;849;48.780;9.216;2022-11-20T17:07:58;10.00;99.90
1704;DHT22;849;48.780;9.216;2022-11-20T17:10:24;10.10;99.90
1704;DHT22;849;48.780;9.216;2022-11-20T17:12:50;10.20;99.90
1704;DHT22;849;48.780;9.216;2022-11-20T17:15:16;9.90;99.90
1704;DHT22;849;48.780;9.216;2022-11-20T17:17:42;9.80;99.90
1704;DHT22;849;48.780;9.216;2022-11-20T17:20:08;10.00;99.90
1704;DHT22;849;48.780;9.216;2022-11-20T17:22:34;10.30;99.90
1704;DHT22;849;48.780;9.216;2022-11-20T17:24:59;10.30;99.90
1704;DHT22;849;48.780;9.216;2022-11-20T17:27:25;10.30;99.90
1704;DHT22;849;48.780;9.216;2022-11-20T17:29:51;10.30;99.90
1704;DHT22;849;48.780;9.216;2022-11-20T17:32:19;10.30;99.90
1704;DHT22;849;48.780;9.216;2022-11-20T17:34:45;10.20;99.90
1704;DHT22;849;48.780;9.216;2022-11-20T17:37:10;10.30;99.90
1704;DHT22;849;48.780;9.216;2022-11-20T17:39:36;10.20;99.90
1704;DHT22;849;48.780;9.216;2022-11-20T17:42:02;10.20;99.90
1704;DHT22;849;48.780;9.216;2022-11-20T17:44:46;10.00;99.90
1704;DHT22;849;48.780;9.216;2022-11-20T17:47:12;9.70;99.90
1704;DHT22;849;48.780;9.216;2022-11-20T17:49:38;9.60;99.90
1704;DHT22;849;48.780;9.216;2022-11-20T17:52:04;9.80;99.90
1704;DHT22;849;48.780;9.216;2022-11-20T17:54:29;9.70;99.90
1704;DHT22;849;48.780;9.216;2022-11-20T17:56:55;9.50;99.90
1704;DHT22;849;48.780;9.216;2022-11-20T17:59:39;9.80;99.90
1704;DHT22;849;48.780;9.216;2022-11-20T18:02:05;10.00;99.90
1704;DHT22;849;48.780;9.216;2022-11-20T18:04:31;10.00;99.90
1704;DHT22;849;48.780;9.216;2022-11-20T18:06:57;10.10;99.90
1704;DHT22;849;48.780;9.216;2022-11-20T18:09:23;10.00;99.90
1704;DHT22;849;48.780;9.216;2022-11-20T18:11:49;10.10;99.90
1704;DHT22;849;48.780;9.216;2022-11-20T18:14:16;10.20;99.90
1704;DHT22;849;48.780;9.216;2022-11-20T18:17:11;10.00;99.90